sensor_id;sensor_type;location;lat;lon;timestamp;pressure;altitude;pressure_sealevel;temperature;humidity
20156;BME280;10238;49.556;10.956;2023-02-04T00:00:56;99257.44;;;5.31;100.00
20156;BME280;10238;49.556;10.956;2023-02-04T00:03:45;99261.75;;;5.32;100.00
20156;BME280;10238;49.556;10.956;2023-02-04T00:06:33;99256.59;;;5.30;100.00
20156;BME280;10238;49.556;10.956;2023-02-04T00:09:20;99246.91;;;5.31;100.00
20156;BME280;10238;49.556;10.956;2023-02-04T00:12:08;99240.78;;;5.30;100.00
20156;BME280;10238;49.556;10.956;2023-02-04T00:14:56;99255.63;;;5.31;100.00
20156;BME280;10238;49.556;10.956;2023-02-04T00:17:44;99252.88;;;5.33;100.00
20156;BME280;10238;49.556;10.956;2023-02-04T00:20:34;99250.25;;;5.33;100.00
20156;BME280;10238;49.556;10.956;2023-02-04T00:23:22;99247.53;;;5.34;100.00
20156;BME280;10238;49.556;10.956;2023-02-04T00:26:12;99256.38;;;5.33;100.00
20156;BME280;10238;49.556;10.956;2023-02-04T00:29:00;99270.50;;;5.32;100.00
20156;BME280;10238;49.556;10.956;2023-02-04T00:31:47;99273.88;;;5.34;100.00
20156;BME280;10238;49.556;10.956;2023-02-04T00:34:35;99280.84;;;5.35;100.00
20156;BME280;10238;49.556;10.956;2023-02-04T00:37:24;99274.75;;;5.35;100.00
20156;BME280;10238;49.556;10.956;2023-02-04T00:40:14;99276.41;;;5.36;100.00
20156;BME280;10238;49.556;10.956;2023-02-04T00:43:01;99284.22;;;5.37;100.00
20156;BME280;10238;49.556;10.956;2023-02-04T00:45:49;99285.19;;;5.36;100.00
20156;BME280;10238;49.556;10.956;2023-02-04T00:48:37;99286.09;;;5.35;100.00
20156;BME280;10238;49.556;10.956;2023-02-04T00:51:24;99289.59;;;5.36;100.00
20156;BME280;10238;49.556;10.956;2023-02-04T00:54:13;99296.66;;;5.35;100.00
20156;BME280;10238;49.556;10.956;2023-02-04T00:57:02;99300.16;;;5.36;100.00
20156;BME280;10238;49.556;10.956;2023-02-04T00:59:50;99301.19;;;5.33;100.00
20156;BME280;10238;49.556;10.956;2023-02-04T01:02:37;99299.38;;;5.34;100.00
20156;BME280;10238;49.556;10.956;2023-02-04T01:05:26;99305.50;;;5.34;100.00
20156;BME280;10238;49.556;10.956;2023-02-04T01:08:14;99308.16;;;5.34;100.00
20156;BME280;10238;49.556;10.956;2023-02-04T01:11:02;99318.69;;;5.34;100.00
20156;BME280;10238;49.556;10.956;2023-02-04T01:13:50;99321.53;;;5.31;100.00
20156;BME280;10238;49.556;10.956;2023-02-04T01:16:39;99318.88;;;5.31;100.00
20156;BME280;10238;49.556;10.956;2023-02-04T01:19:26;99324.16;;;5.31;100.00
20156;BME280;10238;49.556;10.956;2023-02-04T01:22:14;99330.38;;;5.30;100.00
20156;BME280;10238;49.556;10.956;2023-02-04T01:25:02;99319.00;;;5.30;100.00
20156;BME280;10238;49.556;10.956;2023-02-04T01:27:51;99329.72;;;5.27;100.00
20156;BME280;10238;49.556;10.956;2023-02-04T01:30:38;99333.13;;;5.29;100.00
20156;BME280;10238;49.556;10.956;2023-02-04T01:33:25;99333.97;;;5.29;100.00
20156;BME280;10238;49.556;10.956;2023-02-04T01:36:13;99330.59;;;5.27;100.00
20156;BME280;10238;49.556;10.956;2023-02-04T01:39:09;99336.72;;;5.28;100.00
20156;BME280;10238;49.556;10.956;2023-02-04T01:41:57;99335.94;;;5.26;100.00
20156;BME280;10238;49.556;10.956;2023-02-04T01:44:48;99336.06;;;5.24;100.00
20156;BME280;10238;49.556;10.956;2023-02-04T01:47:40;99329.28;;;5.20;100.00
20156;BME280;10238;49.556;10.956;2023-02-04T01:50:28;99330.13;;;5.21;100.00
20156;BME280;10238;49.556;10.956;2023-02-04T01:53:21;99325.69;;;5.21;100.00
20156;BME280;10238;49.556;10.956;2023-02-04T01:56:17;99337.19;;;5.20;100.00
20156;BME280;10238;49.556;10.956;2023-02-04T01:59:11;99330.31;;;5.18;100.00
20156;BME280;10238;49.556;10.956;2023-02-04T02:02:01;99336.44;;;5.18;100.00
20156;BME280;10238;49.556;10.956;2023-02-04T02:04:49;99328.44;;;5.20;100.00
20156;BME280;10238;49.556;10.956;2023-02-04T02:07:36;99329.47;;;5.17;100.00
20156;BME280;10238;49.556;10.956;2023-02-04T02:10:25;99322.50;;;5.16;100.00
20156;BME280;10238;49.556;10.956;2023-02-04T02:13:16;99317.22;;;5.16;100.00
20156;BME280;10238;49.556;10.956;2023-02-04T02:16:05;99321.66;;;5.16;100.00
20156;BME280;10238;49.556;10.956;2023-02-04T02:18:54;99329.69;;;5.14;100.00
20156;BME280;10238;49.556;10.956;2023-02-04T02:21:49;99347.34;;;5.12;100.00
20156;BME280;10238;49.556;10.956;2023-02-04T02:24:41;99340.41;;;5.11;100.00
20156;BME280;10238;49.556;10.956;2023-02-04T02:27:29;99350.28;;;5.08;100.00
20156;BME280;10238;49.556;10.956;2023-02-04T02:30:17;99353.00;;;5.06;100.00
20156;BME280;10238;49.556;10.956;2023-02-04T02:33:06;99357.56;;;5.04;100.00
20156;BME280;10238;49.556;10.956;2023-02-04T02:35:54;99352.38;;;5.03;100.00
20156;BME280;10238;49.556;10.956;2023-02-04T02:38:42;99361.19;;;5.02;100.00
20156;BME280;10238;49.556;10.956;2023-02-04T02:41:31;99372.78;;;4.99;100.00
20156;BME280;10238;49.556;10.956;2023-02-04T02:44:19;99371.19;;;4.97;100.00
20156;BME280;10238;49.556;10.956;2023-02-04T02:47:12;99382.78;;;4.94;100.00
20156;BME280;10238;49.556;10.956;2023-02-04T02:50:01;99380.34;;;4.91;100.00
20156;BME280;10238;49.556;10.956;2023-02-04T02:52:51;99376.94;;;4.89;100.00
20156;BME280;10238;49.556;10.956;2023-02-04T02:55:40;99382.41;;;4.86;100.00
20156;BME280;10238;49.556;10.956;2023-02-04T02:58:32;99398.38;;;4.83;100.00
20156;BME280;10238;49.556;10.956;2023-02-04T03:01:21;99402.16;;;4.79;100.00
20156;BME280;10238;49.556;10.956;2023-02-04T03:04:10;99410.25;;;4.76;100.00
20156;BME280;10238;49.556;10.956;2023-02-04T03:07:09;99426.31;;;4.72;100.00
20156;BME280;10238;49.556;10.956;2023-02-04T03:09:57;99430.91;;;4.68;100.00
20156;BME280;10238;49.556;10.956;2023-02-04T03:12:46;99427.53;;;4.66;100.00
20156;BME280;10238;49.556;10.956;2023-02-04T03:15:38;99428.63;;;4.62;100.00
20156;BME280;10238;49.556;10.956;2023-02-04T03:18:26;99436.75;;;4.59;100.00
20156;BME280;10238;49.556;10.956;2023-02-04T03:21:14;99444.75;;;4.58;100.00
20156;BME280;10238;49.556;10.956;2023-02-04T03:24:02;99445.75;;;4.55;100.00
20156;BME280;10238;49.556;10.956;2023-02-04T03:26:53;99450.38;;;4.52;100.00
20156;BME280;10238;49.556;10.956;2023-02-04T03:29:45;99460.03;;;4.51;100.00
20156;BME280;10238;49.556;10.956;2023-02-04T03:32:35;99466.34;;;4.48;100.00
20156;BME280;10238;49.556;10.956;2023-02-04T03:35:22;99472.44;;;4.49;100.00
20156;BME280;10238;49.556;10.956;2023-02-04T03:38:09;99484.75;;;4.48;100.00
20156;BME280;10238;49.556;10.956;2023-02-04T03:41:03;99477.69;;;4.49;100.00
20156;BME280;10238;49.556;10.956;2023-02-04T03:43:54;99480.41;;;4.47;100.00
20156;BME280;10238;49.556;10.956;2023-02-04T03:46:42;99476.97;;;4.47;100.00
20156;BME280;10238;49.556;10.956;2023-02-04T03:49:31;99487.56;;;4.45;100.00
20156;BME280;10238;49.556;10.956;2023-02-04T03:52:20;99501.56;;;4.46;100.00
20156;BME280;10238;49.556;10.956;2023-02-04T03:55:09;99509.63;;;4.43;100.00
20156;BME280;10238;49.556;10.956;2023-02-04T03:57:57;99501.75;;;4.43;100.00
20156;BME280;10238;49.556;10.956;2023-02-04T04:00:45;99507.22;;;4.40;100.00
20156;BME280;10238;49.556;10.956;2023-02-04T04:03:32;99511.53;;;4.41;100.00
20156;BME280;10238;49.556;10.956;2023-02-04T04:06:21;99500.06;;;4.42;100.00
20156;BME280;10238;49.556;10.956;2023-02-04T04:09:09;99511.69;;;4.38;100.00
20156;BME280;10238;49.556;10.956;2023-02-04T04:11:56;99508.31;;;4.36;100.00
20156;BME280;10238;49.556;10.956;2023-02-04T04:14:44;99511.19;;;4.31;100.00
20156;BME280;10238;49.556;10.956;2023-02-04T04:17:32;99516.63;;;4.28;100.00
20156;BME280;10238;49.556;10.956;2023-02-04T04:20:19;99513.44;;;4.23;100.00
20156;BME280;10238;49.556;10.956;2023-02-04T04:23:12;99512.91;;;4.17;100.00
20156;BME280;10238;49.556;10.956;2023-02-04T04:25:59;99525.31;;;4.15;100.00
20156;BME280;10238;49.556;10.956;2023-02-04T04:28:47;99533.47;;;4.10;100.00
20156;BME280;10238;49.556;10.956;2023-02-04T04:31:35;99545.19;;;4.05;100.00
20156;BME280;10238;49.556;10.956;2023-02-04T04:34:23;99550.47;;;4.05;100.00
20156;BME280;10238;49.556;10.956;2023-02-04T04:37:10;99558.53;;;4.02;100.00
20156;BME280;10238;49.556;10.956;2023-02-04T04:39:59;99564.69;;;4.01;100.00
20156;BME280;10238;49.556;10.956;2023-02-04T04:42:48;99582.38;;;3.99;100.00
20156;BME280;10238;49.556;10.956;2023-02-04T04:45:35;99572.66;;;3.99;100.00
20156;BME280;10238;49.556;10.956;2023-02-04T04:48:23;99570.91;;;4.00;100.00
20156;BME280;10238;49.556;10.956;2023-02-04T04:51:10;99578.72;;;4.01;100.00
20156;BME280;10238;49.556;10.956;2023-02-04T04:53:58;99587.47;;;4.02;100.00
20156;BME280;10238;49.556;10.956;2023-02-04T04:56:48;99593.53;;;4.02;100.00
20156;BME280;10238;49.556;10.956;2023-02-04T04:59:35;99602.28;;;4.03;100.00
20156;BME280;10238;49.556;10.956;2023-02-04T05:02:23;99607.47;;;4.04;100.00
20156;BME280;10238;49.556;10.956;2023-02-04T05:05:11;99613.59;;;4.05;100.00
20156;BME280;10238;49.556;10.956;2023-02-04T05:08:01;99627.50;;;4.07;100.00
20156;BME280;10238;49.556;10.956;2023-02-04T05:10:48;99636.25;;;4.07;100.00
20156;BME280;10238;49.556;10.956;2023-02-04T05:13:37;99631.81;;;4.08;100.00
20156;BME280;10238;49.556;10.956;2023-02-04T05:16:25;99637.09;;;4.08;100.00
20156;BME280;10238;49.556;10.956;2023-02-04T05:19:13;99651.97;;;4.09;100.00
20156;BME280;10238;49.556;10.956;2023-02-04T05:22:00;99646.63;;;4.10;100.00
20156;BME280;10238;49.556;10.956;2023-02-04T05:24:48;99650.06;;;4.11;100.00
20156;BME280;10238;49.556;10.956;2023-02-04T05:27:35;99637.84;;;4.10;100.00
20156;BME280;10238;49.556;10.956;2023-02-04T05:30:24;99645.75;;;4.10;100.00
20156;BME280;10238;49.556;10.956;2023-02-04T05:33:12;99651.00;;;4.10;100.00
20156;BME280;10238;49.556;10.956;2023-02-04T05:36:00;99657.97;;;4.11;100.00
20156;BME280;10238;49.556;10.956;2023-02-04T05:38:47;99665.13;;;4.09;100.00
20156;BME280;10238;49.556;10.956;2023-02-04T05:41:35;99668.66;;;4.08;100.00
20156;BME280;10238;49.556;10.956;2023-02-04T05:44:22;99675.63;;;4.09;100.00
20156;BME280;10238;49.556;10.956;2023-02-04T05:47:14;99679.38;;;4.05;100.00
20156;BME280;10238;49.556;10.956;2023-02-04T05:50:02;99689.13;;;4.03;100.00
20156;BME280;10238;49.556;10.956;2023-02-04T05:52:49;99697.94;;;4.02;100.00
20156;BME280;10238;49.556;10.956;2023-02-04T05:55:37;99692.84;;;3.99;100.00
20156;BME280;10238;49.556;10.956;2023-02-04T05:58:25;99696.38;;;3.98;100.00
20156;BME280;10238;49.556;10.956;2023-02-04T06:01:18;99701.81;;;3.95;100.00
20156;BME280;10238;49.556;10.956;2023-02-04T06:04:07;99715.03;;;3.93;100.00
20156;BME280;10238;49.556;10.956;2023-02-04T06:06:55;99710.81;;;3.91;100.00
20156;BME280;10238;49.556;10.956;2023-02-04T06:09:42;99724.88;;;3.90;100.00
20156;BME280;10238;49.556;10.956;2023-02-04T06:12:30;99739.88;;;3.88;100.00
20156;BME280;10238;49.556;10.956;2023-02-04T06:15:17;99744.47;;;3.84;100.00
20156;BME280;10238;49.556;10.956;2023-02-04T06:18:06;99756.06;;;3.80;100.00
20156;BME280;10238;49.556;10.956;2023-02-04T06:20:55;99761.56;;;3.76;100.00
20156;BME280;10238;49.556;10.956;2023-02-04T06:23:43;99762.66;;;3.72;100.00
20156;BME280;10238;49.556;10.956;2023-02-04T06:26:30;99769.78;;;3.70;100.00
20156;BME280;10238;49.556;10.956;2023-02-04T06:29:18;99778.44;;;3.72;100.00
20156;BME280;10238;49.556;10.956;2023-02-04T06:32:05;99805.88;;;3.66;100.00
20156;BME280;10238;49.556;10.956;2023-02-04T06:34:53;99806.09;;;3.45;100.00
20156;BME280;10238;49.556;10.956;2023-02-04T06:37:43;99810.09;;;3.35;100.00
20156;BME280;10238;49.556;10.956;2023-02-04T06:40:30;99819.47;;;3.22;100.00
20156;BME280;10238;49.556;10.956;2023-02-04T06:43:19;99821.34;;;3.20;100.00
20156;BME280;10238;49.556;10.956;2023-02-04T06:46:06;99837.13;;;3.20;100.00
20156;BME280;10238;49.556;10.956;2023-02-04T06:48:54;99842.28;;;3.21;100.00
20156;BME280;10238;49.556;10.956;2023-02-04T06:51:42;99855.22;;;3.26;100.00
20156;BME280;10238;49.556;10.956;2023-02-04T06:54:31;99858.00;;;3.23;100.00
20156;BME280;10238;49.556;10.956;2023-02-04T06:57:19;99859.97;;;3.18;100.00
20156;BME280;10238;49.556;10.956;2023-02-04T07:00:10;99863.53;;;3.17;100.00
20156;BME280;10238;49.556;10.956;2023-02-04T07:02:58;99865.22;;;3.18;100.00
20156;BME280;10238;49.556;10.956;2023-02-04T07:05:46;99872.50;;;3.13;100.00
20156;BME280;10238;49.556;10.956;2023-02-04T07:08:33;99875.19;;;3.11;100.00
20156;BME280;10238;49.556;10.956;2023-02-04T07:11:22;99872.50;;;3.13;100.00
20156;BME280;10238;49.556;10.956;2023-02-04T07:14:09;99876.00;;;3.12;100.00
20156;BME280;10238;49.556;10.956;2023-02-04T07:16:57;99884.97;;;3.08;100.00
20156;BME280;10238;49.556;10.956;2023-02-04T07:19:45;99892.06;;;3.06;100.00
20156;BME280;10238;49.556;10.956;2023-02-04T07:22:32;99900.00;;;3.04;100.00
20156;BME280;10238;49.556;10.956;2023-02-04T07:25:20;99892.38;;;3.00;100.00
20156;BME280;10238;49.556;10.956;2023-02-04T07:28:09;99888.81;;;3.01;100.00
20156;BME280;10238;49.556;10.956;2023-02-04T07:30:56;99902.88;;;3.00;100.00
20156;BME280;10238;49.556;10.956;2023-02-04T07:33:44;99902.94;;;2.98;100.00
20156;BME280;10238;49.556;10.956;2023-02-04T07:36:31;99914.47;;;2.94;100.00
20156;BME280;10238;49.556;10.956;2023-02-04T07:39:19;99927.69;;;2.93;100.00
20156;BME280;10238;49.556;10.956;2023-02-04T07:42:06;99931.25;;;2.92;100.00
20156;BME280;10238;49.556;10.956;2023-02-04T07:44:55;99938.31;;;2.90;100.00
20156;BME280;10238;49.556;10.956;2023-02-04T07:47:43;99947.13;;;2.89;100.00
20156;BME280;10238;49.556;10.956;2023-02-04T07:50:30;99943.72;;;2.87;100.00
20156;BME280;10238;49.556;10.956;2023-02-04T07:53:18;99946.47;;;2.84;100.00
20156;BME280;10238;49.556;10.956;2023-02-04T07:56:06;99950.81;;;2.85;100.00
20156;BME280;10238;49.556;10.956;2023-02-04T07:58:54;99950.81;;;2.85;100.00
20156;BME280;10238;49.556;10.956;2023-02-04T08:01:43;99950.03;;;2.83;100.00
20156;BME280;10238;49.556;10.956;2023-02-04T08:04:30;99952.66;;;2.83;100.00
20156;BME280;10238;49.556;10.956;2023-02-04T08:07:18;99962.16;;;2.85;100.00
20156;BME280;10238;49.556;10.956;2023-02-04T08:10:08;99977.66;;;2.91;100.00
20156;BME280;10238;49.556;10.956;2023-02-04T08:12:56;99997.56;;;2.97;100.00
20156;BME280;10238;49.556;10.956;2023-02-04T08:15:44;99993.81;;;3.02;100.00
20156;BME280;10238;49.556;10.956;2023-02-04T08:18:33;99991.88;;;3.06;100.00
20156;BME280;10238;49.556;10.956;2023-02-04T08:21:21;99994.22;;;3.12;100.00
20156;BME280;10238;49.556;10.956;2023-02-04T08:24:08;99999.34;;;3.15;100.00
20156;BME280;10238;49.556;10.956;2023-02-04T08:26:56;99996.44;;;3.21;100.00
20156;BME280;10238;49.556;10.956;2023-02-04T08:29:44;99997.88;;;3.28;100.00
20156;BME280;10238;49.556;10.956;2023-02-04T08:32:31;100015.16;;;3.33;100.00
20156;BME280;10238;49.556;10.956;2023-02-04T08:35:20;100020.91;;;3.41;100.00
20156;BME280;10238;49.556;10.956;2023-02-04T08:38:08;100018.16;;;3.44;100.00
20156;BME280;10238;49.556;10.956;2023-02-04T08:40:56;100026.63;;;3.51;100.00
20156;BME280;10238;49.556;10.956;2023-02-04T08:43:45;100030.66;;;3.58;100.00
20156;BME280;10238;49.556;10.956;2023-02-04T08:46:32;100033.03;;;3.64;100.00
20156;BME280;10238;49.556;10.956;2023-02-04T08:49:23;100044.16;;;3.69;100.00
20156;BME280;10238;49.556;10.956;2023-02-04T08:52:12;100042.19;;;3.74;100.00
20156;BME280;10238;49.556;10.956;2023-02-04T08:54:59;100042.94;;;3.76;100.00
20156;BME280;10238;49.556;10.956;2023-02-04T08:57:47;100040.97;;;3.81;100.00
20156;BME280;10238;49.556;10.956;2023-02-04T09:00:34;100048.72;;;3.84;100.00
20156;BME280;10238;49.556;10.956;2023-02-04T09:03:22;100054.44;;;3.92;100.00
20156;BME280;10238;49.556;10.956;2023-02-04T09:06:10;100053.47;;;3.94;100.00
20156;BME280;10238;49.556;10.956;2023-02-04T09:09:00;100061.03;;;4.02;100.00
20156;BME280;10238;49.556;10.956;2023-02-04T09:11:47;100067.84;;;4.06;100.00
20156;BME280;10238;49.556;10.956;2023-02-04T09:14:35;100069.38;;;4.10;100.00
20156;BME280;10238;49.556;10.956;2023-02-04T09:17:22;100065.69;;;4.14;100.00
20156;BME280;10238;49.556;10.956;2023-02-04T09:20:11;100068.00;;;4.20;100.00
20156;BME280;10238;49.556;10.956;2023-02-04T09:22:59;100077.00;;;4.16;100.00
20156;BME280;10238;49.556;10.956;2023-02-04T09:25:49;100071.97;;;4.28;100.00
20156;BME280;10238;49.556;10.956;2023-02-04T09:28:37;100073.63;;;4.31;100.00
20156;BME280;10238;49.556;10.956;2023-02-04T09:31:25;100073.63;;;4.31;100.00
20156;BME280;10238;49.556;10.956;2023-02-04T09:34:12;100074.41;;;4.33;100.00
20156;BME280;10238;49.556;10.956;2023-02-04T09:37:00;100075.56;;;4.44;100.00
20156;BME280;10238;49.556;10.956;2023-02-04T09:39:47;100079.88;;;4.47;100.00
20156;BME280;10238;49.556;10.956;2023-02-04T09:42:36;100090.72;;;4.58;100.00
20156;BME280;10238;49.556;10.956;2023-02-04T09:45:27;100105.28;;;4.65;100.00
20156;BME280;10238;49.556;10.956;2023-02-04T09:48:16;100106.28;;;4.63;100.00
20156;BME280;10238;49.556;10.956;2023-02-04T09:51:06;100103.28;;;4.70;100.00
20156;BME280;10238;49.556;10.956;2023-02-04T09:54:06;100107.31;;;4.77;100.00
20156;BME280;10238;49.556;10.956;2023-02-04T09:56:56;100114.84;;;4.85;100.00
20156;BME280;10238;49.556;10.956;2023-02-04T09:59:46;100118.50;;;4.82;100.00
20156;BME280;10238;49.556;10.956;2023-02-04T10:02:34;100120.03;;;4.86;100.00
20156;BME280;10238;49.556;10.956;2023-02-04T10:05:28;100130.28;;;4.92;100.00
20156;BME280;10238;49.556;10.956;2023-02-04T10:08:18;100132.75;;;4.95;100.00
20156;BME280;10238;49.556;10.956;2023-02-04T10:11:07;100128.59;;;4.91;100.00
20156;BME280;10238;49.556;10.956;2023-02-04T10:13:55;100133.38;;;5.00;100.00
20156;BME280;10238;49.556;10.956;2023-02-04T10:16:54;100138.25;;;5.08;100.00
20156;BME280;10238;49.556;10.956;2023-02-04T10:19:45;100149.34;;;5.14;100.00
20156;BME280;10238;49.556;10.956;2023-02-04T10:22:40;100142.69;;;5.07;100.00
20156;BME280;10238;49.556;10.956;2023-02-04T10:25:28;100137.19;;;5.12;100.00
20156;BME280;10238;49.556;10.956;2023-02-04T10:28:15;100128.72;;;5.22;100.00
20156;BME280;10238;49.556;10.956;2023-02-04T10:31:03;100124.22;;;5.24;100.00
20156;BME280;10238;49.556;10.956;2023-02-04T10:34:05;100117.03;;;5.28;100.00
20156;BME280;10238;49.556;10.956;2023-02-04T10:36:55;100120.72;;;5.24;100.00
20156;BME280;10238;49.556;10.956;2023-02-04T10:39:43;100119.81;;;5.25;100.00
20156;BME280;10238;49.556;10.956;2023-02-04T10:42:31;100120.50;;;5.28;100.00
20156;BME280;10238;49.556;10.956;2023-02-04T10:45:24;100127.56;;;5.28;100.00
20156;BME280;10238;49.556;10.956;2023-02-04T10:48:17;100119.25;;;5.35;100.00
20156;BME280;10238;49.556;10.956;2023-02-04T10:51:08;100119.47;;;5.48;100.00
20156;BME280;10238;49.556;10.956;2023-02-04T10:53:58;100114.72;;;5.54;100.00
20156;BME280;10238;49.556;10.956;2023-02-04T10:57:15;100121.41;;;5.61;100.00
20156;BME280;10238;49.556;10.956;2023-02-04T11:00:15;100117.59;;;5.67;100.00
20156;BME280;10238;49.556;10.956;2023-02-04T11:03:10;100126.63;;;5.78;100.00
20156;BME280;10238;49.556;10.956;2023-02-04T11:05:59;100130.84;;;5.82;100.00
20156;BME280;10238;49.556;10.956;2023-02-04T11:08:49;100127.09;;;5.86;100.00
20156;BME280;10238;49.556;10.956;2023-02-04T11:11:45;100126.94;;;5.89;100.00
20156;BME280;10238;49.556;10.956;2023-02-04T11:14:33;100127.41;;;5.80;100.00
20156;BME280;10238;49.556;10.956;2023-02-04T11:17:21;100119.09;;;5.88;100.00
20156;BME280;10238;49.556;10.956;2023-02-04T11:20:31;100123.72;;;6.00;100.00
20156;BME280;10238;49.556;10.956;2023-02-04T11:23:34;100122.34;;;6.08;100.00
20156;BME280;10238;49.556;10.956;2023-02-04T11:26:35;100119.56;;;6.11;100.00
20156;BME280;10238;49.556;10.956;2023-02-04T11:29:29;100117.09;;;6.24;100.00
20156;BME280;10238;49.556;10.956;2023-02-04T11:32:31;100112.94;;;6.35;100.00
20156;BME280;10238;49.556;10.956;2023-02-04T11:35:24;100115.72;;;6.48;100.00
20156;BME280;10238;49.556;10.956;2023-02-04T11:38:25;100124.16;;;6.54;100.00
20156;BME280;10238;49.556;10.956;2023-02-04T11:41:22;100115.38;;;6.70;100.00
20156;BME280;10238;49.556;10.956;2023-02-04T11:44:13;100120.81;;;6.82;100.00
20156;BME280;10238;49.556;10.956;2023-02-04T11:47:07;100123.00;;;6.90;100.00
20156;BME280;10238;49.556;10.956;2023-02-04T11:50:00;100114.47;;;6.85;100.00
20156;BME280;10238;49.556;10.956;2023-02-04T11:52:49;100113.19;;;6.92;100.00
20156;BME280;10238;49.556;10.956;2023-02-04T11:55:44;100116.34;;;6.98;100.00
20156;BME280;10238;49.556;10.956;2023-02-04T11:58:38;100117.31;;;7.11;100.00
20156;BME280;10238;49.556;10.956;2023-02-04T12:01:32;100119.50;;;7.19;100.00
20156;BME280;10238;49.556;10.956;2023-02-04T12:04:23;100128.97;;;7.23;100.00
20156;BME280;10238;49.556;10.956;2023-02-04T12:07:12;100130.22;;;7.31;100.00
20156;BME280;10238;49.556;10.956;2023-02-04T12:10:18;100133.03;;;7.28;100.00
20156;BME280;10238;49.556;10.956;2023-02-04T12:13:16;100121.00;;;7.09;100.00
20156;BME280;10238;49.556;10.956;2023-02-04T12:16:06;100128.94;;;7.09;100.00
20156;BME280;10238;49.556;10.956;2023-02-04T12:18:55;100133.34;;;7.24;100.00
20156;BME280;10238;49.556;10.956;2023-02-04T12:21:43;100140.69;;;7.33;100.00
20156;BME280;10238;49.556;10.956;2023-02-04T12:24:33;100148.19;;;7.40;100.00
20156;BME280;10238;49.556;10.956;2023-02-04T12:27:20;100144.25;;;7.18;100.00
20156;BME280;10238;49.556;10.956;2023-02-04T12:30:10;100151.88;;;7.38;100.00
20156;BME280;10238;49.556;10.956;2023-02-04T12:32:59;100156.13;;;7.40;100.00
20156;BME280;10238;49.556;10.956;2023-02-04T12:35:49;100154.25;;;7.42;100.00
20156;BME280;10238;49.556;10.956;2023-02-04T12:38:37;100154.91;;;7.46;100.00
20156;BME280;10238;49.556;10.956;2023-02-04T12:41:24;100149.50;;;7.47;100.00
20156;BME280;10238;49.556;10.956;2023-02-04T12:44:12;100160.41;;;7.43;100.00
20156;BME280;10238;49.556;10.956;2023-02-04T12:47:00;100153.09;;;7.32;100.00
20156;BME280;10238;49.556;10.956;2023-02-04T12:49:48;100151.19;;;7.34;100.00
20156;BME280;10238;49.556;10.956;2023-02-04T12:52:38;100153.19;;;7.31;100.00
20156;BME280;10238;49.556;10.956;2023-02-04T12:55:27;100159.91;;;7.36;100.00
20156;BME280;10238;49.556;10.956;2023-02-04T12:58:16;100161.84;;;7.33;100.00
20156;BME280;10238;49.556;10.956;2023-02-04T13:01:04;100166.88;;;7.37;100.00
20156;BME280;10238;49.556;10.956;2023-02-04T13:03:53;100162.28;;;7.41;100.00
20156;BME280;10238;49.556;10.956;2023-02-04T13:06:41;100163.97;;;7.42;100.00
20156;BME280;10238;49.556;10.956;2023-02-04T13:09:31;100168.44;;;7.41;100.00
20156;BME280;10238;49.556;10.956;2023-02-04T13:12:19;100163.97;;;7.42;100.00
20156;BME280;10238;49.556;10.956;2023-02-04T13:15:08;100167.38;;;7.44;100.00
20156;BME280;10238;49.556;10.956;2023-02-04T13:17:56;100166.63;;;7.42;100.00
20156;BME280;10238;49.556;10.956;2023-02-04T13:20:45;100164.06;;;7.40;100.00
20156;BME280;10238;49.556;10.956;2023-02-04T13:23:33;100168.78;;;7.35;100.00
20156;BME280;10238;49.556;10.956;2023-02-04T13:26:24;100163.31;;;7.38;100.00
20156;BME280;10238;49.556;10.956;2023-02-04T13:29:12;100159.03;;;7.36;100.00
20156;BME280;10238;49.556;10.956;2023-02-04T13:32:00;100167.31;;;7.30;100.00
20156;BME280;10238;49.556;10.956;2023-02-04T13:34:47;100171.69;;;7.31;100.00
20156;BME280;10238;49.556;10.956;2023-02-04T13:37:35;100173.75;;;7.26;100.00
20156;BME280;10238;49.556;10.956;2023-02-04T13:40:23;100168.06;;;7.18;100.00
20156;BME280;10238;49.556;10.956;2023-02-04T13:43:12;100172.41;;;7.19;100.00
20156;BME280;10238;49.556;10.956;2023-02-04T13:46:00;100174.00;;;7.21;100.00
20156;BME280;10238;49.556;10.956;2023-02-04T13:48:49;100174.09;;;7.20;100.00
20156;BME280;10238;49.556;10.956;2023-02-04T13:51:36;100182.22;;;7.17;100.00
20156;BME280;10238;49.556;10.956;2023-02-04T13:54:24;100183.34;;;7.13;100.00
20156;BME280;10238;49.556;10.956;2023-02-04T13:57:12;100176.34;;;7.12;100.00
20156;BME280;10238;49.556;10.956;2023-02-04T14:00:04;100178.13;;;7.11;100.00
20156;BME280;10238;49.556;10.956;2023-02-04T14:02:55;100181.81;;;7.09;100.00
20156;BME280;10238;49.556;10.956;2023-02-04T14:05:42;100188.16;;;7.06;100.00
20156;BME280;10238;49.556;10.956;2023-02-04T14:08:30;100192.13;;;6.98;100.00
20156;BME280;10238;49.556;10.956;2023-02-04T14:11:20;100190.78;;;6.91;100.00
20156;BME280;10238;49.556;10.956;2023-02-04T14:14:08;100195.13;;;6.92;100.00
20156;BME280;10238;49.556;10.956;2023-02-04T14:16:58;100190.72;;;6.92;100.00
20156;BME280;10238;49.556;10.956;2023-02-04T14:19:47;100187.13;;;6.93;100.00
20156;BME280;10238;49.556;10.956;2023-02-04T14:22:37;100187.97;;;6.94;100.00
20156;BME280;10238;49.556;10.956;2023-02-04T14:25:25;100193.44;;;6.91;100.00
20156;BME280;10238;49.556;10.956;2023-02-04T14:28:16;100197.28;;;6.85;100.00
20156;BME280;10238;49.556;10.956;2023-02-04T14:31:05;100190.56;;;6.80;100.00
20156;BME280;10238;49.556;10.956;2023-02-04T14:33:55;100196.03;;;6.77;100.00
20156;BME280;10238;49.556;10.956;2023-02-04T14:36:44;100191.94;;;6.71;100.00
20156;BME280;10238;49.556;10.956;2023-02-04T14:39:33;100186.44;;;6.74;100.00